KLNK/LNK METAR and TAF weather

Enter ICAO airport designator
Station Type Date Time Source
KLNK METAR 2019/12/08 06:54 UTC NOAA

KLNK 080654Z AUTO 20011KT 10SM CLR 05/M03 A2985 RMK AO2 SLP110 T00501033 $


Station Type Date Time Source
KLNK Decoded METAR 2019/12/08 06:54 UTC NOAA

LINCOLN MUNICIPAL AIRPORT, NE, United States (KLNK) 40-50N 96-46W 364M
Dec 08, 2019 - 01:54 AM EST / 2019.12.08 0654 UTC
Wind: from the SSW (200 degrees) at 13 MPH (11 KT):0
Visibility: 10 mile(s):0
Sky conditions: clear
Temperature: 41.0 F (5.0 C)
Dew Point: 26.1 F (-3.3 C)
Relative Humidity: 54%
Pressure (altimeter): 29.85 in. Hg (1010 hPa)
ob: KLNK 080654Z AUTO 20011KT 10SM CLR 05/M03 A2985 RMK AO2 SLP110 T00501033
cycle: 7

Station Type Date Time Source
KLNK TAF 2019/12/08 06:27 UTC NOAA

TAF KLNK 080525Z 0806/0906 20009KT P6SM BKN250 WS020/23045KT
FM080900 VRB04KT P6SM BKN250

Example: see airport list